Time;durP1;ratioP1;P1;durP2;ratioP2;P2;SDS_P1;SDS_P2;PMS_P1;PMS_P2;Temp;Humidity;BMP_temperature;BMP_pressure;BME280_temperature;BME280_humidity;BME280_pressure;Samples;Min_cycle;Max_cycle;Signal;HPM_P1;HPM_P2
2021/03/26 00:01:22;;;;;;;1.50;1.50;;;7.20;98.00;;;;;;5074127;28;20460;-67
2021/03/26 00:03:51;;;;;;;2.60;1.73;;;7.00;98.00;;;;;;5071757;28;20796;-67
2021/03/26 00:06:21;;;;;;;1.40;1.20;;;7.00;98.00;;;;;;5073891;28;20936;-67
2021/03/26 00:08:48;;;;;;;1.60;1.50;;;6.80;98.00;;;;;;5071655;28;20487;-67
2021/03/26 00:11:15;;;;;;;1.20;1.10;;;6.70;98.00;;;;;;5074060;28;20461;-67
2021/03/26 00:13:42;;;;;;;2.23;1.77;;;6.80;98.00;;;;;;5071470;28;20941;-67
2021/03/26 00:16:10;;;;;;;2.37;1.93;;;6.90;98.00;;;;;;5073786;28;20951;-67
2021/03/26 00:18:37;;;;;;;1.50;1.30;;;6.90;98.00;;;;;;5072761;28;20474;-67
2021/03/26 00:21:05;;;;;;;1.47;1.43;;;7.10;98.00;;;;;;5072635;28;20485;-67
2021/03/26 00:23:33;;;;;;;1.47;1.43;;;6.80;98.00;;;;;;5073661;28;20464;-67
2021/03/26 00:25:59;;;;;;;2.03;1.27;;;6.80;98.00;;;;;;5069842;28;20505;-67
2021/03/26 00:28:26;;;;;;;3.10;1.63;;;6.80;98.00;;;;;;5073348;28;20508;-67
2021/03/26 00:30:52;;;;;;;1.20;1.00;;;6.90;98.00;;;;;;5070961;28;20460;-67
2021/03/26 00:33:21;;;;;;;1.97;1.60;;;6.80;98.00;;;;;;5088962;28;20890;-67
2021/03/26 00:35:47;;;;;;;2.10;1.97;;;6.90;98.00;;;;;;5071147;28;20459;-67
2021/03/26 00:38:15;;;;;;;1.70;1.60;;;6.90;98.00;;;;;;5073326;28;20598;-67
2021/03/26 00:40:43;;;;;;;2.90;1.77;;;7.00;98.00;;;;;;5068968;28;20468;-67
2021/03/26 00:43:12;;;;;;;2.30;1.97;;;7.00;98.00;;;;;;5073131;28;20466;-67
2021/03/26 00:45:40;;;;;;;2.00;1.80;;;6.90;98.00;;;;;;5070598;28;21154;-67
2021/03/26 00:48:10;;;;;;;2.90;1.80;;;6.90;98.00;;;;;;5072829;28;20530;-67
2021/03/26 00:50:41;;;;;;;2.07;1.50;;;7.00;98.00;;;;;;5085659;28;20460;-67
2021/03/26 00:53:10;;;;;;;3.60;1.83;;;7.20;98.00;;;;;;5072987;28;20470;-69
2021/03/26 00:55:37;;;;;;;1.20;1.10;;;7.20;98.00;;;;;;5070900;28;20457;-70
2021/03/26 00:58:04;;;;;;;2.17;1.50;;;7.20;98.00;;;;;;5072960;28;20847;-69
2021/03/26 01:00:32;;;;;;;3.30;2.33;;;7.10;98.00;;;;;;5070675;28;20460;-69
2021/03/26 01:05:43;;;;;;;1.23;1.23;;;6.80;98.00;;;;;;5070456;28;20470;-69
2021/03/26 01:08:10;;;;;;;2.30;1.40;;;6.60;98.00;;;;;;5072844;28;20482;-69
2021/03/26 01:10:40;;;;;;;2.77;1.83;;;6.40;98.00;;;;;;5069331;28;20457;-69
2021/03/26 01:13:10;;;;;;;1.97;1.50;;;6.30;98.00;;;;;;5072637;28;20469;-69
2021/03/26 01:15:37;;;;;;;2.60;1.30;;;6.30;98.00;;;;;;5070394;28;20972;-70
2021/03/26 01:18:08;;;;;;;1.30;1.13;;;6.40;98.00;;;;;;5072598;28;20454;-69
2021/03/26 01:20:38;;;;;;;1.90;1.50;;;6.50;98.00;;;;;;5070102;28;20506;-69
2021/03/26 01:23:05;;;;;;;1.40;1.30;;;6.60;98.00;;;;;;5072556;28;20475;-69
2021/03/26 01:25:37;;;;;;;1.83;1.77;;;6.60;98.00;;;;;;5070071;28;21030;-69
2021/03/26 01:28:05;;;;;;;1.93;1.27;;;6.60;98.00;;;;;;5072099;28;20558;-69
2021/03/26 01:30:34;;;;;;;1.53;1.13;;;6.60;98.00;;;;;;5070423;28;20511;-69
2021/03/26 01:33:01;;;;;;;1.50;1.40;;;6.40;98.00;;;;;;5072313;28;20457;-69
2021/03/26 01:35:29;;;;;;;1.70;1.37;;;6.20;98.00;;;;;;5069627;28;20830;-69
2021/03/26 01:37:56;;;;;;;1.40;1.40;;;6.10;98.00;;;;;;5087174;28;20456;-69
2021/03/26 01:40:26;;;;;;;1.67;1.37;;;6.10;98.00;;;;;;5069477;28;20515;-69
2021/03/26 01:43:02;;;;;;;1.20;1.07;;;6.20;98.00;;;;;;5071515;28;20509;-69
2021/03/26 01:45:28;;;;;;;2.73;1.80;;;6.30;98.00;;;;;;5069599;28;20850;-69
2021/03/26 01:47:57;;;;;;;2.23;1.33;;;6.20;98.00;;;;;;5071674;28;20477;-69
2021/03/26 01:50:28;;;;;;;4.10;2.10;;;6.00;98.00;;;;;;5069907;28;20517;-69
2021/03/26 01:52:56;;;;;;;1.23;1.10;;;6.20;98.00;;;;;;5086823;28;20454;-69
2021/03/26 01:55:25;;;;;;;3.60;1.57;;;6.20;98.00;;;;;;5069464;28;20500;-69
2021/03/26 01:57:52;;;;;;;2.13;1.40;;;6.30;98.00;;;;;;5071631;28;20451;-69
2021/03/26 02:00:24;;;;;;;1.20;1.10;;;6.40;98.00;;;;;;5069504;28;20514;-69
2021/03/26 02:02:51;;;;;;;1.87;1.47;;;6.30;98.00;;;;;;5071702;28;20469;-69
2021/03/26 02:05:24;;;;;;;1.47;1.40;;;6.20;98.00;;;;;;5084730;28;20549;-69
2021/03/26 02:07:50;;;;;;;1.50;1.20;;;6.10;98.00;;;;;;5071638;28;20998;-69
2021/03/26 02:10:18;;;;;;;3.10;1.83;;;6.20;98.00;;;;;;5069377;28;20929;-69
2021/03/26 02:12:45;;;;;;;3.40;1.53;;;6.20;98.00;;;;;;5071698;28;20511;-69
2021/03/26 02:15:19;;;;;;;2.00;1.43;;;6.10;98.00;;;;;;5084729;28;20461;-69
2021/03/26 02:17:47;;;;;;;1.60;1.47;;;6.10;98.00;;;;;;5071634;28;20919;-69
2021/03/26 02:20:25;;;;;;;2.00;1.63;;;6.20;98.00;;;;;;5068791;28;21020;-69
2021/03/26 02:22:55;;;;;;;1.20;1.10;;;6.20;98.00;;;;;;5071483;28;20540;-69
2021/03/26 02:25:24;;;;;;;6.13;1.73;;;5.90;98.00;;;;;;5069023;28;20471;-69
2021/03/26 02:27:52;;;;;;;1.37;1.33;;;5.90;98.00;;;;;;5086875;28;20481;-69
2021/03/26 02:30:25;;;;;;;2.53;1.47;;;5.80;98.00;;;;;;5084430;28;20446;-69
2021/03/26 02:32:52;;;;;;;4.07;2.57;;;5.80;98.00;;;;;;5071516;28;21016;-69
2021/03/26 02:35:25;;;;;;;1.47;1.43;;;5.60;98.00;;;;;;5069042;28;20810;-69
2021/03/26 02:37:56;;;;;;;3.60;1.40;;;5.70;98.00;;;;;;5071286;28;20462;-69
2021/03/26 02:40:30;;;;;;;1.50;1.27;;;5.70;98.00;;;;;;5068904;28;20507;-69
2021/03/26 02:43:09;;;;;;;2.07;1.80;;;5.80;98.00;;;;;;5086238;28;20464;-69
2021/03/26 02:45:40;;;;;;;2.13;1.87;;;5.80;98.00;;;;;;5069064;28;20493;-69
2021/03/26 02:48:13;;;;;;;1.50;1.40;;;5.70;98.00;;;;;;5071145;28;20510;-69
2021/03/26 02:51:01;;;;;;;2.30;1.47;;;5.70;98.00;;;;;;5072183;28;20813;-69
2021/03/26 02:53:36;;;;;;;3.43;1.40;;;5.40;98.00;;;;;;5075171;28;20561;-69
2021/03/26 02:56:07;;;;;;;2.30;1.40;;;5.30;98.00;;;;;;5087831;28;20517;-69
2021/03/26 02:58:37;;;;;;;2.33;1.60;;;5.40;98.00;;;;;;5074829;28;20553;-69
2021/03/26 03:01:08;;;;;;;3.43;1.63;;;5.20;98.00;;;;;;5072667;28;20482;-69
2021/03/26 03:03:37;;;;;;;1.40;1.27;;;5.10;98.00;;;;;;5075570;28;20467;-69
2021/03/26 03:06:09;;;;;;;4.03;1.40;;;4.90;98.00;;;;;;5072666;28;20962;-69
2021/03/26 03:08:37;;;;;;;1.60;1.50;;;5.00;98.00;;;;;;5075060;28;20571;-69
2021/03/26 03:11:11;;;;;;;4.20;1.93;;;5.00;98.00;;;;;;5072368;28;20518;-69
2021/03/26 03:13:41;;;;;;;1.40;1.40;;;5.00;98.00;;;;;;5075148;28;20448;-69
2021/03/26 03:16:18;;;;;;;1.83;1.73;;;4.90;98.00;;;;;;5072773;28;20458;-69
2021/03/26 03:18:57;;;;;;;1.77;1.30;;;5.00;98.00;;;;;;5075052;28;21222;-69
2021/03/26 03:21:33;;;;;;;1.30;1.20;;;5.00;98.00;;;;;;5074648;28;20802;-69
2021/03/26 03:24:08;;;;;;;1.90;1.40;;;5.10;98.00;;;;;;5072404;28;20511;-69
2021/03/26 03:26:44;;;;;;;2.90;1.60;;;5.20;98.00;;;;;;5074562;28;20451;-69
2021/03/26 03:29:16;;;;;;;2.80;2.00;;;5.00;98.00;;;;;;5072048;28;20487;-69
2021/03/26 03:31:49;;;;;;;2.43;1.73;;;5.10;98.00;;;;;;5074522;28;20972;-69
2021/03/26 03:34:27;;;;;;;1.33;1.33;;;5.00;98.00;;;;;;5072019;28;20978;-69
2021/03/26 03:37:07;;;;;;;1.37;1.33;;;4.80;98.00;;;;;;5074192;28;20466;-69
2021/03/26 03:39:43;;;;;;;1.20;1.00;;;4.70;98.00;;;;;;5071434;28;20458;-69
2021/03/26 03:42:20;;;;;;;1.30;1.20;;;4.90;98.00;;;;;;5074369;28;21031;-69
2021/03/26 03:44:55;;;;;;;1.27;1.10;;;4.70;98.00;;;;;;5071703;28;20469;-69
2021/03/26 03:47:31;;;;;;;1.87;1.43;;;4.60;98.00;;;;;;5074096;28;20458;-69
2021/03/26 03:50:01;;;;;;;1.50;1.40;;;4.60;98.00;;;;;;5071640;28;20494;-69
2021/03/26 03:52:34;;;;;;;1.20;1.20;;;4.60;98.00;;;;;;5074135;28;20487;-69
2021/03/26 03:55:15;;;;;;;2.30;1.60;;;4.60;98.00;;;;;;5071708;28;20483;-69
2021/03/26 03:57:46;;;;;;;1.30;1.30;;;4.70;98.00;;;;;;5089088;28;20453;-69
2021/03/26 04:00:17;;;;;;;1.20;1.10;;;4.60;98.00;;;;;;5071904;28;20487;-69
2021/03/26 04:02:50;;;;;;;1.70;1.53;;;4.50;98.00;;;;;;5074272;28;20445;-69
2021/03/26 04:05:23;;;;;;;3.50;2.13;;;4.40;98.00;;;;;;5071434;28;20463;-69
2021/03/26 04:07:56;;;;;;;1.77;1.20;;;4.60;98.00;;;;;;5073840;28;20964;-69
2021/03/26 04:10:25;;;;;;;3.60;1.77;;;4.70;98.00;;;;;;5071593;28;20465;-69
2021/03/26 04:12:56;;;;;;;2.03;1.70;;;4.80;98.00;;;;;;5073954;28;20498;-69
2021/03/26 04:15:29;;;;;;;1.30;1.20;;;4.90;98.00;;;;;;5071356;28;20489;-69
2021/03/26 04:18:01;;;;;;;1.40;1.40;;;4.90;98.00;;;;;;5073588;28;21029;-69
2021/03/26 04:20:39;;;;;;;2.90;1.57;;;4.90;98.00;;;;;;5071479;28;20516;-69
2021/03/26 04:23:09;;;;;;;2.03;1.50;;;5.00;98.00;;;;;;5073376;28;20522;-69
2021/03/26 04:25:42;;;;;;;1.50;1.20;;;5.00;98.00;;;;;;5071115;28;20455;-69
2021/03/26 04:28:16;;;;;;;1.30;1.30;;;5.00;98.00;;;;;;5073348;28;20506;-69
2021/03/26 04:30:47;;;;;;;4.90;2.77;;;4.90;98.00;;;;;;5086195;28;20464;-69
2021/03/26 04:33:14;;;;;;;2.07;1.80;;;5.00;98.00;;;;;;5073225;28;20560;-69
2021/03/26 04:35:41;;;;;;;1.40;1.23;;;5.00;98.00;;;;;;5070590;28;20496;-69
2021/03/26 04:38:13;;;;;;;2.63;1.47;;;4.60;98.00;;;;;;5072247;28;20457;-69
2021/03/26 04:40:42;;;;;;;1.87;1.80;;;4.60;98.00;;;;;;5070220;28;20464;-69
2021/03/26 04:43:20;;;;;;;2.33;1.13;;;4.40;98.00;;;;;;5072870;28;20878;-69
2021/03/26 04:45:52;;;;;;;1.60;1.47;;;4.40;98.00;;;;;;5086117;28;20469;-69
2021/03/26 04:48:24;;;;;;;4.80;2.57;;;4.50;98.00;;;;;;5072992;28;20484;-69
2021/03/26 04:51:01;;;;;;;1.33;1.27;;;4.50;98.00;;;;;;5070634;28;20458;-69
2021/03/26 04:53:36;;;;;;;4.70;1.77;;;4.40;98.00;;;;;;5072905;28;20459;-69
2021/03/26 04:56:09;;;;;;;1.40;1.30;;;4.50;98.00;;;;;;5070716;28;20481;-69
2021/03/26 04:58:39;;;;;;;1.80;1.40;;;4.30;98.00;;;;;;5072715;28;20453;-69
2021/03/26 05:01:11;;;;;;;1.50;1.40;;;4.10;98.00;;;;;;5070914;28;20480;-69
2021/03/26 05:03:39;;;;;;;1.20;1.10;;;4.00;98.00;;;;;;5073136;28;20462;-69
2021/03/26 05:06:11;;;;;;;4.40;2.20;;;4.00;98.00;;;;;;5070788;28;20788;-69
2021/03/26 05:08:42;;;;;;;1.20;1.00;;;4.10;98.00;;;;;;5088041;28;20487;-69
2021/03/26 05:11:11;;;;;;;3.37;2.03;;;4.00;98.00;;;;;;5069943;28;20811;-69
2021/03/26 05:13:42;;;;;;;1.30;1.13;;;4.20;98.00;;;;;;5071874;28;20456;-69
2021/03/26 05:16:15;;;;;;;1.20;1.20;;;4.40;98.00;;;;;;5085862;28;20793;-69
2021/03/26 05:18:45;;;;;;;1.40;1.07;;;4.40;98.00;;;;;;5072439;28;20457;-69
2021/03/26 05:21:16;;;;;;;1.93;1.40;;;4.40;98.00;;;;;;5069809;28;20506;-69
2021/03/26 05:23:46;;;;;;;1.30;1.17;;;4.50;98.00;;;;;;5072476;28;20459;-69
2021/03/26 05:26:13;;;;;;;1.30;1.30;;;4.30;98.00;;;;;;5069896;28;20496;-69
2021/03/26 05:28:44;;;;;;;1.20;1.10;;;4.30;98.00;;;;;;5072135;28;20481;-69
2021/03/26 05:31:31;;;;;;;3.20;1.67;;;4.30;98.00;;;;;;5084729;28;20454;-69
2021/03/26 05:34:00;;;;;;;1.30;1.30;;;4.20;98.00;;;;;;5072244;28;20460;-69
2021/03/26 05:36:35;;;;;;;1.73;1.40;;;4.20;98.00;;;;;;5070128;28;20481;-69
2021/03/26 05:39:08;;;;;;;2.80;2.20;;;4.30;98.00;;;;;;5072062;28;20456;-69
2021/03/26 05:41:48;;;;;;;1.73;1.73;;;4.30;98.00;;;;;;5086028;28;20461;-69
2021/03/26 05:44:31;;;;;;;1.30;1.27;;;4.50;98.00;;;;;;5069579;28;20466;-69
2021/03/26 05:47:18;;;;;;;3.23;1.37;;;4.50;98.00;;;;;;5071867;28;20455;-69
2021/03/26 05:50:13;;;;;;;1.40;1.20;;;4.60;98.00;;;;;;5069389;28;20547;-69
2021/03/26 05:53:03;;;;;;;3.93;2.30;;;4.70;98.00;;;;;;5070734;28;21045;-69
2021/03/26 05:55:43;;;;;;;1.70;1.50;;;4.70;98.00;;;;;;5069211;28;20467;-69
2021/03/26 05:58:19;;;;;;;2.17;1.43;;;4.50;98.00;;;;;;5071724;28;20463;-69
2021/03/26 06:01:24;;;;;;;1.20;1.10;;;4.30;98.00;;;;;;5069698;28;20831;-69
2021/03/26 06:04:40;;;;;;;1.70;1.33;;;4.10;98.00;;;;;;5071420;28;20465;-69
2021/03/26 06:07:35;;;;;;;1.93;1.40;;;3.90;98.00;;;;;;5087506;28;20462;-69
2021/03/26 06:10:16;;;;;;;1.90;1.13;;;4.00;98.00;;;;;;5067095;28;20507;-69
2021/03/26 06:13:25;;;;;;;1.30;1.10;;;4.10;98.00;;;;;;5071529;28;21220;-69
2021/03/26 06:16:28;;;;;;;1.30;1.20;;;4.20;98.00;;;;;;5068596;28;20980;-69
2021/03/26 06:19:33;;;;;;;1.27;1.13;;;4.30;98.00;;;;;;5070128;28;20818;-69
2021/03/26 06:22:31;;;;;;;2.17;1.53;;;4.50;98.00;;;;;;5071552;28;20976;-69
2021/03/26 06:25:36;;;;;;;1.60;1.47;;;4.30;98.00;;;;;;5069139;28;20937;-69
2021/03/26 06:28:21;;;;;;;3.57;1.90;;;4.20;98.00;;;;;;5071410;28;20835;-69
2021/03/26 06:31:11;;;;;;;1.53;1.30;;;4.20;98.00;;;;;;5069126;28;20847;-69
2021/03/26 06:34:14;;;;;;;1.50;1.40;;;4.40;98.00;;;;;;5071291;28;20457;-68
2021/03/26 06:37:13;;;;;;;1.37;1.33;;;4.60;98.00;;;;;;5067291;28;20461;-69
2021/03/26 06:40:12;;;;;;;2.60;2.20;;;4.80;98.00;;;;;;5068843;28;20495;-68
2021/03/26 06:42:58;;;;;;;1.83;1.13;;;5.00;98.00;;;;;;5071265;28;20847;-69
2021/03/26 06:45:52;;;;;;;1.57;1.53;;;5.20;98.00;;;;;;5068577;28;20480;-69
2021/03/26 06:48:28;;;;;;;1.77;1.77;;;5.10;98.00;;;;;;5071214;28;20522;-68
2021/03/26 06:51:18;;;;;;;1.90;1.30;;;5.00;98.00;;;;;;5068350;28;20457;-68
2021/03/26 06:53:56;;;;;;;2.03;1.40;;;5.10;98.00;;;;;;5071245;28;20550;-68
2021/03/26 06:56:49;;;;;;;1.40;1.30;;;5.00;98.00;;;;;;5069009;28;20461;-69
2021/03/26 06:59:36;;;;;;;1.73;1.70;;;5.00;98.00;;;;;;5069877;28;20896;-69
2021/03/26 07:02:27;;;;;;;1.20;1.00;;;5.10;98.00;;;;;;5070959;28;20819;-69
2021/03/26 07:05:27;;;;;;;1.87;1.43;;;5.30;98.00;;;;;;5068427;28;20465;-68
2021/03/26 07:08:19;;;;;;;5.27;2.27;;;5.40;98.00;;;;;;5071307;28;20869;-69
2021/03/26 07:10:58;;;;;;;1.20;1.10;;;5.60;98.00;;;;;;5069007;28;20457;-69
2021/03/26 07:13:40;;;;;;;3.83;2.57;;;5.60;98.00;;;;;;5071230;28;20458;-69
2021/03/26 07:16:39;;;;;;;2.93;2.57;;;5.70;98.00;;;;;;5068427;28;20516;-69
2021/03/26 07:19:32;;;;;;;2.63;1.83;;;5.80;98.00;;;;;;5071063;28;20491;-69
2021/03/26 07:22:13;;;;;;;1.50;1.33;;;6.00;98.00;;;;;;5071083;28;20930;-69
2021/03/26 07:25:07;;;;;;;1.83;1.73;;;6.10;98.00;;;;;;5068557;28;20506;-69
2021/03/26 07:27:47;;;;;;;1.57;1.33;;;6.20;98.00;;;;;;5071005;28;20970;-69
2021/03/26 07:30:41;;;;;;;3.23;1.80;;;6.20;98.00;;;;;;5068417;28;20517;-69
2021/03/26 07:33:22;;;;;;;2.30;1.87;;;6.40;98.00;;;;;;5070899;28;20857;-69
2021/03/26 07:36:20;;;;;;;1.70;1.23;;;6.50;98.00;;;;;;5069716;28;20458;-69
2021/03/26 07:39:15;;;;;;;2.30;2.10;;;6.70;98.00;;;;;;5089966;28;20546;-69
2021/03/26 07:42:04;;;;;;;1.67;1.57;;;7.10;98.00;;;;;;5071549;28;20459;-69
2021/03/26 07:45:02;;;;;;;4.13;1.40;;;7.40;98.00;;;;;;5071400;28;20518;-69
2021/03/26 07:47:54;;;;;;;2.03;1.73;;;7.70;98.00;;;;;;5073990;28;20456;-69
2021/03/26 07:50:36;;;;;;;1.73;1.70;;;8.00;98.00;;;;;;5071493;28;20916;-69
2021/03/26 07:53:20;;;;;;;1.70;1.53;;;8.20;98.00;;;;;;5072642;28;20455;-68
2021/03/26 07:55:58;;;;;;;2.40;1.77;;;8.30;98.00;;;;;;5071437;28;20464;-69
2021/03/26 07:58:54;;;;;;;2.97;2.27;;;8.40;98.00;;;;;;5074055;28;20449;-69
2021/03/26 08:01:30;;;;;;;2.00;1.63;;;8.50;98.00;;;;;;5069960;28;20463;-68
2021/03/26 08:04:08;;;;;;;1.77;1.50;;;8.50;98.00;;;;;;5073389;28;20454;-69
2021/03/26 08:07:13;;;;;;;3.97;2.53;;;8.50;98.00;;;;;;5071189;28;20940;-68
2021/03/26 08:10:15;;;;;;;3.00;1.93;;;8.70;98.00;;;;;;5071643;28;20865;-68
2021/03/26 08:12:52;;;;;;;1.20;1.00;;;8.90;98.00;;;;;;5072546;28;20452;-69
2021/03/26 08:15:46;;;;;;;2.03;1.40;;;9.70;98.00;;;;;;5070663;28;20501;-70
2021/03/26 08:18:24;;;;;;;4.17;1.70;;;10.70;98.00;;;;;;5073465;28;20478;-69
2021/03/26 08:21:05;;;;;;;3.10;1.83;;;11.40;98.00;;;;;;5071320;28;20457;-68
2021/03/26 08:23:54;;;;;;;2.30;2.00;;;11.60;96.40;;;;;;5073237;28;20489;-66
2021/03/26 08:26:42;;;;;;;2.17;1.70;;;11.40;97.20;;;;;;5071363;28;20462;-66
2021/03/26 08:29:17;;;;;;;2.70;1.90;;;11.30;97.70;;;;;;5072153;28;20492;-66
2021/03/26 08:32:30;;;;;;;1.63;1.60;;;11.40;97.70;;;;;;5069219;28;20465;-66
2021/03/26 08:35:35;;;;;;;2.20;1.67;;;11.30;98.00;;;;;;5071149;28;20457;-65
2021/03/26 08:38:29;;;;;;;2.33;1.97;;;11.30;97.30;;;;;;5058304;28;20801;-66
2021/03/26 08:40:59;;;;;;;4.30;2.50;;;11.30;96.80;;;;;;5071292;28;20861;-66
2021/03/26 08:43:27;;;;;;;1.30;1.20;;;11.30;97.70;;;;;;5072973;28;20501;-66
2021/03/26 08:46:08;;;;;;;1.30;1.30;;;11.20;97.50;;;;;;5070484;28;20464;-66
2021/03/26 08:48:42;;;;;;;1.60;1.53;;;11.30;97.50;;;;;;5071910;28;20480;-66
2021/03/26 08:51:49;;;;;;;1.70;1.30;;;11.30;97.90;;;;;;5070645;28;20461;-65
2021/03/26 08:54:29;;;;;;;2.13;1.30;;;11.40;97.40;;;;;;5071554;28;20464;-66
2021/03/26 08:57:09;;;;;;;2.53;2.13;;;11.40;97.50;;;;;;5072814;28;20489;-65
2021/03/26 08:59:59;;;;;;;3.10;1.90;;;11.70;96.50;;;;;;5085001;28;20461;-65
2021/03/26 09:02:54;;;;;;;2.00;1.93;;;11.80;96.70;;;;;;5072752;28;20481;-66
2021/03/26 09:05:48;;;;;;;1.40;1.30;;;12.10;97.40;;;;;;5070468;28;20462;-66
2021/03/26 09:08:35;;;;;;;2.70;2.00;;;12.30;96.10;;;;;;5072457;28;20462;-66
2021/03/26 09:11:23;;;;;;;1.57;1.57;;;12.40;95.10;;;;;;5070271;28;20607;-66
2021/03/26 09:14:17;;;;;;;2.37;2.10;;;12.60;95.50;;;;;;5072645;28;20458;-66
2021/03/26 09:16:51;;;;;;;3.03;2.20;;;12.80;95.40;;;;;;5070226;28;20455;-66
2021/03/26 09:19:22;;;;;;;3.60;1.87;;;13.00;94.00;;;;;;5072632;28;20874;-66
2021/03/26 09:21:58;;;;;;;2.60;2.07;;;13.20;92.70;;;;;;5085452;28;20456;-66
2021/03/26 09:24:58;;;;;;;5.73;3.53;;;13.40;92.90;;;;;;5072410;28;20466;-66
2021/03/26 09:27:34;;;;;;;2.17;1.60;;;13.60;92.50;;;;;;5072288;28;20461;-66
2021/03/26 09:30:17;;;;;;;1.67;1.53;;;13.70;91.00;;;;;;5069415;28;20573;-66
2021/03/26 09:32:50;;;;;;;1.93;1.57;;;13.90;90.00;;;;;;5072030;28;20480;-66
2021/03/26 09:35:22;;;;;;;4.00;2.13;;;14.10;90.90;;;;;;5069984;28;20886;-65
2021/03/26 09:37:53;;;;;;;2.47;2.03;;;14.20;89.50;;;;;;5071966;28;20483;-66
2021/03/26 09:40:34;;;;;;;2.60;1.70;;;14.30;90.10;;;;;;5069533;28;20456;-66
2021/03/26 09:43:18;;;;;;;3.20;1.97;;;14.40;89.60;;;;;;5071748;28;20550;-66
2021/03/26 09:45:53;;;;;;;2.60;1.87;;;14.70;88.30;;;;;;5069302;28;20959;-66
2021/03/26 09:48:42;;;;;;;2.70;2.23;;;15.00;87.50;;;;;;5071853;28;20451;-66
2021/03/26 09:51:19;;;;;;;1.63;1.60;;;15.20;86.90;;;;;;5083814;28;20512;-66
2021/03/26 09:53:47;;;;;;;2.00;1.53;;;15.40;85.90;;;;;;5070477;28;20936;-66
2021/03/26 09:56:43;;;;;;;2.17;1.57;;;15.60;84.80;;;;;;5069611;28;20462;-66
2021/03/26 09:59:18;;;;;;;4.83;2.23;;;15.80;84.60;;;;;;5058327;28;20472;-66
2021/03/26 10:01:50;;;;;;;4.67;2.60;;;16.00;84.30;;;;;;5069414;28;20745;-66
2021/03/26 10:04:22;;;;;;;2.07;1.70;;;16.10;83.90;;;;;;5071489;28;20457;-66
2021/03/26 10:07:02;;;;;;;2.57;1.87;;;16.30;82.80;;;;;;5069403;28;20492;-66
2021/03/26 10:09:37;;;;;;;1.90;1.43;;;16.50;82.30;;;;;;5071655;28;21009;-66
2021/03/26 10:12:13;;;;;;;4.57;2.20;;;16.70;81.40;;;;;;5071725;28;20537;-66
2021/03/26 10:14:56;;;;;;;1.60;1.40;;;16.90;81.00;;;;;;5069461;28;20463;-66
2021/03/26 10:17:57;;;;;;;2.30;1.83;;;17.10;80.20;;;;;;5071738;28;20459;-66
2021/03/26 10:20:42;;;;;;;2.70;1.63;;;17.20;79.60;;;;;;5084714;28;20493;-66
2021/03/26 10:23:21;;;;;;;3.27;2.10;;;17.30;78.10;;;;;;5071298;28;20480;-66
2021/03/26 10:25:50;;;;;;;1.83;1.80;;;17.40;78.80;;;;;;5068623;28;20494;-66
2021/03/26 10:28:23;;;;;;;3.07;1.70;;;17.50;76.70;;;;;;5070641;28;20523;-66
2021/03/26 10:30:55;;;;;;;4.53;2.13;;;17.50;77.40;;;;;;5068376;28;20509;-66
2021/03/26 10:33:23;;;;;;;2.13;1.97;;;17.70;76.90;;;;;;5070599;28;20457;-66
2021/03/26 10:35:59;;;;;;;2.03;1.70;;;17.80;76.90;;;;;;5068262;28;20467;-66
2021/03/26 10:38:40;;;;;;;2.90;2.17;;;18.00;77.10;;;;;;5071227;28;20460;-66
2021/03/26 10:41:15;;;;;;;1.80;1.53;;;18.10;76.70;;;;;;5069207;28;20452;-66
2021/03/26 10:43:50;;;;;;;1.90;1.53;;;18.30;75.60;;;;;;5071054;28;20592;-66
2021/03/26 10:46:23;;;;;;;4.00;2.07;;;18.40;73.70;;;;;;5068528;28;20477;-66
2021/03/26 10:48:58;;;;;;;1.50;1.50;;;18.30;72.90;;;;;;5070313;28;20507;-66
2021/03/26 10:51:35;;;;;;;2.60;1.77;;;18.20;72.90;;;;;;5068615;28;20456;-66
2021/03/26 10:54:11;;;;;;;2.60;2.30;;;17.80;72.80;;;;;;5070345;28;20516;-66
2021/03/26 10:57:03;;;;;;;9.03;1.77;;;18.10;73.20;;;;;;5068740;28;20839;-66
2021/03/26 10:59:40;;;;;;;3.60;2.27;;;18.20;72.70;;;;;;5070323;28;20460;-66
2021/03/26 11:02:41;;;;;;;3.00;1.57;;;18.20;71.40;;;;;;5084487;28;20460;-66
2021/03/26 11:05:19;;;;;;;3.13;1.70;;;18.40;70.80;;;;;;5068568;28;20459;-66
2021/03/26 11:07:50;;;;;;;3.87;1.67;;;18.60;69.90;;;;;;5069987;28;20453;-66
2021/03/26 11:10:23;;;;;;;2.50;1.80;;;18.90;69.90;;;;;;5069000;28;21036;-66
2021/03/26 11:12:53;;;;;;;1.60;1.50;;;19.20;69.70;;;;;;5073556;28;20490;-66
2021/03/26 11:15:23;;;;;;;1.27;1.20;;;19.60;69.00;;;;;;5072188;28;20453;-66
2021/03/26 11:18:03;;;;;;;6.50;1.97;;;19.90;65.90;;;;;;5073728;28;20462;-66
2021/03/26 11:20:39;;;;;;;1.90;1.57;;;19.70;64.20;;;;;;5072126;28;20463;-66
2021/03/26 11:23:12;;;;;;;2.57;1.60;;;19.70;63.70;;;;;;5073799;28;20886;-66
2021/03/26 11:25:42;;;;;;;2.27;1.50;;;19.80;63.90;;;;;;5072051;28;20539;-66
2021/03/26 11:28:20;;;;;;;2.80;1.60;;;20.10;64.40;;;;;;5089061;28;20521;-66
2021/03/26 11:30:54;;;;;;;2.57;1.90;;;20.20;64.20;;;;;;5071435;28;20517;-66
2021/03/26 11:33:35;;;;;;;2.40;1.63;;;20.20;65.80;;;;;;5088839;28;20471;-66
2021/03/26 11:36:05;;;;;;;2.17;1.87;;;20.30;64.80;;;;;;5071774;28;20487;-66
2021/03/26 11:38:34;;;;;;;2.57;1.63;;;20.20;66.30;;;;;;5073757;28;20539;-66
2021/03/26 11:41:08;;;;;;;1.70;1.60;;;20.00;64.40;;;;;;5071833;28;20457;-66
2021/03/26 11:43:43;;;;;;;2.50;1.53;;;20.00;63.50;;;;;;5073332;28;20458;-66
2021/03/26 11:46:14;;;;;;;2.20;1.53;;;20.30;63.30;;;;;;5069960;28;20459;-66
2021/03/26 11:48:54;;;;;;;2.00;1.60;;;20.40;62.80;;;;;;5073094;28;20542;-66
2021/03/26 11:51:30;;;;;;;2.03;1.63;;;20.60;63.10;;;;;;5071574;28;20448;-66
2021/03/26 11:54:01;;;;;;;2.40;1.70;;;20.30;64.70;;;;;;5088248;28;20456;-66
2021/03/26 11:56:44;;;;;;;1.87;1.53;;;20.30;63.60;;;;;;5071539;28;21035;-66
2021/03/26 11:59:51;;;;;;;1.87;1.33;;;20.30;63.50;;;;;;5073256;28;20873;-66
2021/03/26 12:02:43;;;;;;;2.13;1.53;;;20.60;60.00;;;;;;5073112;28;20465;-66
2021/03/26 12:05:19;;;;;;;3.60;1.50;;;20.80;61.90;;;;;;5069235;28;20461;-66
2021/03/26 12:07:54;;;;;;;1.73;1.50;;;20.60;60.10;;;;;;5072889;28;20467;-66
2021/03/26 12:10:28;;;;;;;3.00;1.83;;;20.60;60.70;;;;;;5070685;28;20484;-66
2021/03/26 12:13:05;;;;;;;2.80;1.83;;;20.40;61.90;;;;;;5088682;28;20942;-66
2021/03/26 12:15:36;;;;;;;1.30;1.17;;;20.00;61.30;;;;;;5071463;28;20452;-66
2021/03/26 12:18:07;;;;;;;1.30;1.20;;;19.90;59.60;;;;;;5072816;28;20459;-66
2021/03/26 12:20:37;;;;;;;2.10;1.53;;;19.80;62.00;;;;;;5071161;28;20484;-66
2021/03/26 12:23:34;;;;;;;1.87;1.63;;;19.90;61.40;;;;;;5072629;28;20464;-66
2021/03/26 12:26:07;;;;;;;1.97;1.30;;;20.00;60.60;;;;;;5070982;28;20496;-66
2021/03/26 12:28:42;;;;;;;2.90;1.50;;;20.10;60.70;;;;;;5072801;28;21076;-66
2021/03/26 12:31:16;;;;;;;1.30;1.20;;;20.10;62.30;;;;;;5070586;28;20461;-66
2021/03/26 12:33:48;;;;;;;2.00;1.60;;;20.10;61.80;;;;;;5072546;28;20460;-66
2021/03/26 12:36:20;;;;;;;1.60;1.40;;;20.30;62.30;;;;;;5086318;28;20461;-66
2021/03/26 12:38:56;;;;;;;2.33;1.40;;;20.50;62.10;;;;;;5072475;28;20542;-66
2021/03/26 12:41:41;;;;;;;2.30;1.87;;;20.00;61.90;;;;;;5070556;28;20461;-66
2021/03/26 12:44:24;;;;;;;1.40;1.30;;;19.80;62.40;;;;;;5072709;28;20495;-66
2021/03/26 12:47:23;;;;;;;1.80;1.60;;;19.90;63.80;;;;;;5070661;28;20456;-67
2021/03/26 12:50:02;;;;;;;2.07;1.47;;;20.00;62.50;;;;;;5071996;28;20516;-66
2021/03/26 12:52:56;;;;;;;1.50;1.33;;;20.20;61.90;;;;;;5072250;28;20551;-66
2021/03/26 12:55:35;;;;;;;2.63;1.80;;;20.10;63.40;;;;;;5064954;28;20609;-66
2021/03/26 12:58:18;;;;;;;1.50;1.33;;;19.80;62.60;;;;;;5072125;28;20453;-66
2021/03/26 13:01:01;;;;;;;2.07;1.20;;;20.10;64.80;;;;;;5070070;28;20461;-66
2021/03/26 13:03:33;;;;;;;1.50;1.33;;;20.60;62.00;;;;;;5071933;28;20491;-66
2021/03/26 13:06:07;;;;;;;1.70;1.47;;;20.90;61.10;;;;;;5069935;28;20461;-66
2021/03/26 13:08:38;;;;;;;8.07;2.20;;;20.90;61.40;;;;;;5070635;28;20658;-66
2021/03/26 13:11:15;;;;;;;3.00;2.17;;;20.70;61.20;;;;;;5069843;28;20457;-66
2021/03/26 13:13:50;;;;;;;1.80;1.63;;;20.40;61.90;;;;;;5071908;28;20976;-66
2021/03/26 13:16:45;;;;;;;4.53;1.77;;;20.40;62.90;;;;;;5069823;28;20823;-66
2021/03/26 13:19:26;;;;;;;1.93;1.40;;;20.40;63.90;;;;;;5071586;28;20457;-66
2021/03/26 13:22:17;;;;;;;2.80;1.70;;;20.60;63.10;;;;;;5069452;28;20460;-66
2021/03/26 13:25:19;;;;;;;3.00;2.07;;;20.60;62.40;;;;;;5071429;28;20866;-66
2021/03/26 13:28:00;;;;;;;2.07;1.60;;;20.20;63.40;;;;;;5072167;28;20476;-66
2021/03/26 13:30:52;;;;;;;2.07;1.60;;;20.10;65.30;;;;;;5069417;28;20484;-66
2021/03/26 13:33:45;;;;;;;3.67;1.87;;;20.30;64.50;;;;;;5070957;28;20461;-66
2021/03/26 13:36:32;;;;;;;2.30;1.97;;;20.90;63.80;;;;;;5069637;28;20467;-66
2021/03/26 13:39:35;;;;;;;2.33;1.70;;;21.40;62.20;;;;;;5071222;28;20800;-66
2021/03/26 13:42:15;;;;;;;2.17;1.40;;;21.70;61.20;;;;;;5045805;28;20461;-66
2021/03/26 13:45:05;;;;;;;1.40;1.40;;;22.10;59.70;;;;;;5067710;28;20457;-66
2021/03/26 13:47:49;;;;;;;1.70;1.50;;;22.60;60.90;;;;;;5069597;28;20468;-67
2021/03/26 13:50:27;;;;;;;2.67;1.93;;;22.90;59.70;;;;;;5068781;28;21078;-67
2021/03/26 13:53:12;;;;;;;3.10;2.03;;;23.20;59.50;;;;;;5070549;28;20460;-66